sensor_id;sensor_type;location;lat;lon;timestamp;P1;durP1;ratioP1;P2;durP2;ratioP2
13457;SDS011;6801;53.018;11.560;2022-12-07T00:01:42;10.30;;;5.22;;
13457;SDS011;6801;53.018;11.560;2022-12-07T00:04:11;13.45;;;5.47;;
13457;SDS011;6801;53.018;11.560;2022-12-07T00:06:40;8.43;;;4.95;;
13457;SDS011;6801;53.018;11.560;2022-12-07T00:09:10;11.88;;;6.85;;
13457;SDS011;6801;53.018;11.560;2022-12-07T00:11:38;11.65;;;5.32;;
13457;SDS011;6801;53.018;11.560;2022-12-07T00:14:06;11.60;;;6.57;;
13457;SDS011;6801;53.018;11.560;2022-12-07T00:19:04;10.65;;;5.68;;
13457;SDS011;6801;53.018;11.560;2022-12-07T00:21:32;10.95;;;6.53;;
13457;SDS011;6801;53.018;11.560;2022-12-07T00:24:00;13.10;;;7.20;;
13457;SDS011;6801;53.018;11.560;2022-12-07T00:26:28;13.60;;;6.80;;
13457;SDS011;6801;53.018;11.560;2022-12-07T00:29:00;15.63;;;7.82;;
13457;SDS011;6801;53.018;11.560;2022-12-07T00:31:31;12.65;;;7.47;;
13457;SDS011;6801;53.018;11.560;2022-12-07T00:34:01;10.40;;;5.60;;
13457;SDS011;6801;53.018;11.560;2022-12-07T00:36:28;16.20;;;8.70;;
13457;SDS011;6801;53.018;11.560;2022-12-07T00:38:57;14.50;;;8.98;;
13457;SDS011;6801;53.018;11.560;2022-12-07T00:41:26;15.32;;;8.75;;
13457;SDS011;6801;53.018;11.560;2022-12-07T00:43:53;9.48;;;3.95;;
13457;SDS011;6801;53.018;11.560;2022-12-07T00:46:21;15.43;;;8.57;;
13457;SDS011;6801;53.018;11.560;2022-12-07T00:48:49;13.73;;;8.10;;
13457;SDS011;6801;53.018;11.560;2022-12-07T00:51:19;16.52;;;8.98;;
13457;SDS011;6801;53.018;11.560;2022-12-07T00:53:47;18.25;;;10.07;;
13457;SDS011;6801;53.018;11.560;2022-12-07T00:56:16;16.23;;;9.60;;
13457;SDS011;6801;53.018;11.560;2022-12-07T00:58:48;15.98;;;10.10;;
13457;SDS011;6801;53.018;11.560;2022-12-07T01:01:16;17.30;;;9.40;;
13457;SDS011;6801;53.018;11.560;2022-12-07T01:03:43;17.35;;;9.52;;
13457;SDS011;6801;53.018;11.560;2022-12-07T01:06:13;15.95;;;9.15;;
13457;SDS011;6801;53.018;11.560;2022-12-07T01:08:42;22.13;;;10.95;;
13457;SDS011;6801;53.018;11.560;2022-12-07T01:11:11;17.95;;;9.30;;
13457;SDS011;6801;53.018;11.560;2022-12-07T01:13:40;17.15;;;9.35;;
13457;SDS011;6801;53.018;11.560;2022-12-07T01:16:07;16.52;;;9.80;;
13457;SDS011;6801;53.018;11.560;2022-12-07T01:18:36;14.82;;;8.20;;
13457;SDS011;6801;53.018;11.560;2022-12-07T01:21:04;15.63;;;9.80;;
13457;SDS011;6801;53.018;11.560;2022-12-07T01:23:32;17.80;;;9.05;;
13457;SDS011;6801;53.018;11.560;2022-12-07T01:26:02;16.35;;;9.38;;
13457;SDS011;6801;53.018;11.560;2022-12-07T01:28:30;13.57;;;8.43;;
13457;SDS011;6801;53.018;11.560;2022-12-07T01:30:57;14.80;;;8.30;;
13457;SDS011;6801;53.018;11.560;2022-12-07T01:33:26;17.70;;;10.63;;
13457;SDS011;6801;53.018;11.560;2022-12-07T01:35:54;17.67;;;9.98;;
13457;SDS011;6801;53.018;11.560;2022-12-07T01:38:26;15.15;;;8.65;;
13457;SDS011;6801;53.018;11.560;2022-12-07T01:40:54;16.50;;;8.88;;
13457;SDS011;6801;53.018;11.560;2022-12-07T01:43:22;19.20;;;9.57;;
13457;SDS011;6801;53.018;11.560;2022-12-07T01:45:51;12.98;;;7.80;;
13457;SDS011;6801;53.018;11.560;2022-12-07T01:48:19;16.52;;;8.45;;
13457;SDS011;6801;53.018;11.560;2022-12-07T01:50:50;17.15;;;10.38;;
13457;SDS011;6801;53.018;11.560;2022-12-07T01:53:19;17.92;;;10.88;;
13457;SDS011;6801;53.018;11.560;2022-12-07T01:55:51;19.95;;;11.13;;
13457;SDS011;6801;53.018;11.560;2022-12-07T01:58:19;16.98;;;10.55;;
13457;SDS011;6801;53.018;11.560;2022-12-07T02:00:49;17.95;;;10.23;;
13457;SDS011;6801;53.018;11.560;2022-12-07T02:03:17;15.32;;;9.82;;
13457;SDS011;6801;53.018;11.560;2022-12-07T02:05:47;16.85;;;9.77;;
13457;SDS011;6801;53.018;11.560;2022-12-07T02:08:15;19.95;;;10.95;;
13457;SDS011;6801;53.018;11.560;2022-12-07T02:10:43;17.95;;;11.43;;
13457;SDS011;6801;53.018;11.560;2022-12-07T02:13:13;18.38;;;9.93;;
13457;SDS011;6801;53.018;11.560;2022-12-07T02:15:45;18.92;;;10.85;;
13457;SDS011;6801;53.018;11.560;2022-12-07T02:20:54;14.13;;;7.55;;
13457;SDS011;6801;53.018;11.560;2022-12-07T02:26:29;17.02;;;9.70;;
13457;SDS011;6801;53.018;11.560;2022-12-07T02:29:22;16.88;;;10.02;;
13457;SDS011;6801;53.018;11.560;2022-12-07T02:31:55;19.40;;;11.70;;
13457;SDS011;6801;53.018;11.560;2022-12-07T02:34:30;16.13;;;8.90;;
13457;SDS011;6801;53.018;11.560;2022-12-07T02:37:03;14.73;;;8.73;;
13457;SDS011;6801;53.018;11.560;2022-12-07T02:39:37;19.60;;;11.02;;
13457;SDS011;6801;53.018;11.560;2022-12-07T02:42:10;15.98;;;7.50;;
13457;SDS011;6801;53.018;11.560;2022-12-07T02:44:43;17.58;;;9.43;;
13457;SDS011;6801;53.018;11.560;2022-12-07T02:47:12;18.20;;;9.82;;
13457;SDS011;6801;53.018;11.560;2022-12-07T02:49:44;12.35;;;7.93;;
13457;SDS011;6801;53.018;11.560;2022-12-07T02:52:12;15.88;;;7.80;;
13457;SDS011;6801;53.018;11.560;2022-12-07T02:54:38;17.25;;;10.52;;
13457;SDS011;6801;53.018;11.560;2022-12-07T02:57:14;18.70;;;8.95;;
13457;SDS011;6801;53.018;11.560;2022-12-07T03:00:06;18.50;;;10.57;;
13457;SDS011;6801;53.018;11.560;2022-12-07T03:02:40;16.25;;;9.80;;
13457;SDS011;6801;53.018;11.560;2022-12-07T03:05:20;15.65;;;9.45;;
13457;SDS011;6801;53.018;11.560;2022-12-07T03:08:02;15.10;;;9.68;;
13457;SDS011;6801;53.018;11.560;2022-12-07T03:10:35;17.40;;;10.23;;
13457;SDS011;6801;53.018;11.560;2022-12-07T03:13:11;16.30;;;9.82;;
13457;SDS011;6801;53.018;11.560;2022-12-07T03:15:49;16.25;;;10.20;;
13457;SDS011;6801;53.018;11.560;2022-12-07T03:18:22;20.77;;;9.65;;
13457;SDS011;6801;53.018;11.560;2022-12-07T03:20:52;18.23;;;9.20;;
13457;SDS011;6801;53.018;11.560;2022-12-07T03:23:23;16.65;;;9.02;;
13457;SDS011;6801;53.018;11.560;2022-12-07T03:25:54;22.48;;;9.95;;
13457;SDS011;6801;53.018;11.560;2022-12-07T03:28:25;17.13;;;8.77;;
13457;SDS011;6801;53.018;11.560;2022-12-07T03:30:59;16.95;;;10.15;;
13457;SDS011;6801;53.018;11.560;2022-12-07T03:33:30;15.70;;;8.35;;
13457;SDS011;6801;53.018;11.560;2022-12-07T03:36:01;13.93;;;8.60;;
13457;SDS011;6801;53.018;11.560;2022-12-07T03:38:33;14.98;;;9.25;;
13457;SDS011;6801;53.018;11.560;2022-12-07T03:41:08;16.05;;;9.15;;
13457;SDS011;6801;53.018;11.560;2022-12-07T03:43:38;16.55;;;9.63;;
13457;SDS011;6801;53.018;11.560;2022-12-07T03:46:09;16.98;;;9.82;;
13457;SDS011;6801;53.018;11.560;2022-12-07T03:48:46;16.70;;;9.98;;
13457;SDS011;6801;53.018;11.560;2022-12-07T03:51:22;17.80;;;9.00;;
13457;SDS011;6801;53.018;11.560;2022-12-07T03:53:56;17.88;;;10.55;;
13457;SDS011;6801;53.018;11.560;2022-12-07T03:56:28;13.77;;;9.00;;
13457;SDS011;6801;53.018;11.560;2022-12-07T03:58:56;18.17;;;8.60;;
13457;SDS011;6801;53.018;11.560;2022-12-07T04:01:24;17.08;;;9.98;;
13457;SDS011;6801;53.018;11.560;2022-12-07T04:03:52;16.63;;;8.77;;
13457;SDS011;6801;53.018;11.560;2022-12-07T04:06:19;15.75;;;7.25;;
13457;SDS011;6801;53.018;11.560;2022-12-07T04:08:46;18.20;;;9.02;;
13457;SDS011;6801;53.018;11.560;2022-12-07T04:11:13;16.00;;;8.45;;
13457;SDS011;6801;53.018;11.560;2022-12-07T04:13:40;13.35;;;8.00;;
13457;SDS011;6801;53.018;11.560;2022-12-07T04:16:25;14.65;;;8.68;;
13457;SDS011;6801;53.018;11.560;2022-12-07T04:18:52;16.83;;;9.35;;
13457;SDS011;6801;53.018;11.560;2022-12-07T04:21:19;14.88;;;7.05;;
13457;SDS011;6801;53.018;11.560;2022-12-07T04:23:46;15.85;;;8.30;;
13457;SDS011;6801;53.018;11.560;2022-12-07T04:26:13;13.90;;;8.40;;
13457;SDS011;6801;53.018;11.560;2022-12-07T04:28:40;13.43;;;8.20;;
13457;SDS011;6801;53.018;11.560;2022-12-07T04:31:07;13.45;;;7.15;;
13457;SDS011;6801;53.018;11.560;2022-12-07T04:33:36;14.85;;;7.75;;
13457;SDS011;6801;53.018;11.560;2022-12-07T04:36:03;16.98;;;8.27;;
13457;SDS011;6801;53.018;11.560;2022-12-07T04:38:31;16.20;;;8.45;;
13457;SDS011;6801;53.018;11.560;2022-12-07T04:40:58;16.63;;;8.45;;
13457;SDS011;6801;53.018;11.560;2022-12-07T04:43:30;14.45;;;7.97;;
13457;SDS011;6801;53.018;11.560;2022-12-07T04:45:57;13.95;;;7.47;;
13457;SDS011;6801;53.018;11.560;2022-12-07T04:48:24;13.68;;;7.13;;
13457;SDS011;6801;53.018;11.560;2022-12-07T04:50:52;11.55;;;7.15;;
13457;SDS011;6801;53.018;11.560;2022-12-07T04:53:19;11.63;;;6.85;;
13457;SDS011;6801;53.018;11.560;2022-12-07T04:55:46;10.75;;;6.57;;
13457;SDS011;6801;53.018;11.560;2022-12-07T04:58:13;11.45;;;7.18;;
13457;SDS011;6801;53.018;11.560;2022-12-07T05:00:40;13.68;;;6.47;;
13457;SDS011;6801;53.018;11.560;2022-12-07T05:03:07;12.95;;;5.90;;
13457;SDS011;6801;53.018;11.560;2022-12-07T05:05:34;12.68;;;5.47;;
13457;SDS011;6801;53.018;11.560;2022-12-07T05:08:03;10.90;;;5.72;;
13457;SDS011;6801;53.018;11.560;2022-12-07T05:10:30;11.82;;;6.15;;
13457;SDS011;6801;53.018;11.560;2022-12-07T05:12:57;10.20;;;6.38;;
13457;SDS011;6801;53.018;11.560;2022-12-07T05:15:24;11.57;;;6.18;;
13457;SDS011;6801;53.018;11.560;2022-12-07T05:17:51;10.05;;;5.18;;
13457;SDS011;6801;53.018;11.560;2022-12-07T05:20:18;9.52;;;5.50;;
13457;SDS011;6801;53.018;11.560;2022-12-07T05:22:45;9.68;;;4.72;;
13457;SDS011;6801;53.018;11.560;2022-12-07T05:25:14;10.80;;;4.32;;
13457;SDS011;6801;53.018;11.560;2022-12-07T05:27:41;10.32;;;4.45;;
13457;SDS011;6801;53.018;11.560;2022-12-07T05:30:08;5.80;;;3.70;;
13457;SDS011;6801;53.018;11.560;2022-12-07T05:32:36;12.15;;;4.18;;
13457;SDS011;6801;53.018;11.560;2022-12-07T05:35:03;7.65;;;4.20;;
13457;SDS011;6801;53.018;11.560;2022-12-07T05:37:30;8.65;;;2.70;;
13457;SDS011;6801;53.018;11.560;2022-12-07T05:39:57;4.25;;;2.63;;
13457;SDS011;6801;53.018;11.560;2022-12-07T05:42:26;7.18;;;2.90;;
13457;SDS011;6801;53.018;11.560;2022-12-07T05:44:53;6.53;;;3.58;;
13457;SDS011;6801;53.018;11.560;2022-12-07T05:47:20;5.88;;;3.67;;
13457;SDS011;6801;53.018;11.560;2022-12-07T05:49:47;8.45;;;3.28;;
13457;SDS011;6801;53.018;11.560;2022-12-07T05:52:14;5.22;;;3.03;;
13457;SDS011;6801;53.018;11.560;2022-12-07T05:54:42;7.10;;;3.25;;
13457;SDS011;6801;53.018;11.560;2022-12-07T05:57:09;7.55;;;3.55;;
13457;SDS011;6801;53.018;11.560;2022-12-07T05:59:37;6.07;;;2.58;;
13457;SDS011;6801;53.018;11.560;2022-12-07T06:02:03;3.90;;;1.58;;
13457;SDS011;6801;53.018;11.560;2022-12-07T06:04:33;3.55;;;1.42;;
13457;SDS011;6801;53.018;11.560;2022-12-07T06:07:01;6.30;;;2.83;;
13457;SDS011;6801;53.018;11.560;2022-12-07T06:09:28;4.15;;;2.58;;
13457;SDS011;6801;53.018;11.560;2022-12-07T06:11:55;3.80;;;2.15;;
13457;SDS011;6801;53.018;11.560;2022-12-07T06:14:42;4.53;;;2.05;;
13457;SDS011;6801;53.018;11.560;2022-12-07T06:17:10;3.63;;;2.03;;
13457;SDS011;6801;53.018;11.560;2022-12-07T06:19:37;4.68;;;1.95;;
13457;SDS011;6801;53.018;11.560;2022-12-07T06:22:05;4.25;;;2.10;;
13457;SDS011;6801;53.018;11.560;2022-12-07T06:24:32;3.85;;;2.50;;
13457;SDS011;6801;53.018;11.560;2022-12-07T06:27:00;4.30;;;3.00;;
13457;SDS011;6801;53.018;11.560;2022-12-07T06:29:27;1.50;;;1.30;;
13457;SDS011;6801;53.018;11.560;2022-12-07T06:31:55;5.10;;;2.83;;
13457;SDS011;6801;53.018;11.560;2022-12-07T06:34:23;5.28;;;2.72;;
13457;SDS011;6801;53.018;11.560;2022-12-07T06:36:50;4.85;;;2.53;;
13457;SDS011;6801;53.018;11.560;2022-12-07T06:39:20;6.68;;;2.38;;
13457;SDS011;6801;53.018;11.560;2022-12-07T06:41:49;6.75;;;3.30;;
13457;SDS011;6801;53.018;11.560;2022-12-07T06:44:17;6.03;;;2.72;;
13457;SDS011;6801;53.018;11.560;2022-12-07T06:46:44;5.10;;;2.58;;
13457;SDS011;6801;53.018;11.560;2022-12-07T06:49:13;5.03;;;2.90;;
13457;SDS011;6801;53.018;11.560;2022-12-07T06:51:40;7.05;;;1.75;;
13457;SDS011;6801;53.018;11.560;2022-12-07T06:54:08;6.95;;;2.80;;
13457;SDS011;6801;53.018;11.560;2022-12-07T06:56:36;7.15;;;2.65;;
13457;SDS011;6801;53.018;11.560;2022-12-07T06:59:03;5.65;;;3.15;;
13457;SDS011;6801;53.018;11.560;2022-12-07T07:01:31;5.10;;;2.65;;
13457;SDS011;6801;53.018;11.560;2022-12-07T07:03:59;4.13;;;2.47;;
13457;SDS011;6801;53.018;11.560;2022-12-07T07:06:28;3.47;;;2.45;;
13457;SDS011;6801;53.018;11.560;2022-12-07T07:08:55;6.55;;;2.83;;
13457;SDS011;6801;53.018;11.560;2022-12-07T07:11:22;4.07;;;2.45;;
13457;SDS011;6801;53.018;11.560;2022-12-07T07:13:49;6.78;;;2.72;;
13457;SDS011;6801;53.018;11.560;2022-12-07T07:16:16;4.57;;;2.97;;
13457;SDS011;6801;53.018;11.560;2022-12-07T07:18:43;3.85;;;2.30;;
13457;SDS011;6801;53.018;11.560;2022-12-07T07:21:10;4.55;;;3.00;;
13457;SDS011;6801;53.018;11.560;2022-12-07T07:23:38;5.28;;;3.03;;
13457;SDS011;6801;53.018;11.560;2022-12-07T07:26:05;4.00;;;2.83;;
13457;SDS011;6801;53.018;11.560;2022-12-07T07:28:32;3.67;;;2.13;;
13457;SDS011;6801;53.018;11.560;2022-12-07T07:30:59;4.38;;;2.92;;
13457;SDS011;6801;53.018;11.560;2022-12-07T07:33:26;8.20;;;3.53;;
13457;SDS011;6801;53.018;11.560;2022-12-07T07:35:53;4.10;;;2.47;;
13457;SDS011;6801;53.018;11.560;2022-12-07T07:38:20;6.22;;;4.03;;
13457;SDS011;6801;53.018;11.560;2022-12-07T07:40:48;4.72;;;3.25;;
13457;SDS011;6801;53.018;11.560;2022-12-07T07:43:15;5.07;;;3.22;;
13457;SDS011;6801;53.018;11.560;2022-12-07T07:45:42;5.28;;;3.40;;
13457;SDS011;6801;53.018;11.560;2022-12-07T07:48:10;5.82;;;3.95;;
13457;SDS011;6801;53.018;11.560;2022-12-07T07:50:37;5.70;;;3.30;;
13457;SDS011;6801;53.018;11.560;2022-12-07T07:53:04;6.60;;;3.50;;
13457;SDS011;6801;53.018;11.560;2022-12-07T07:55:31;6.07;;;3.38;;
13457;SDS011;6801;53.018;11.560;2022-12-07T07:58:00;7.57;;;3.65;;
13457;SDS011;6801;53.018;11.560;2022-12-07T08:00:27;3.85;;;2.72;;
13457;SDS011;6801;53.018;11.560;2022-12-07T08:02:54;6.85;;;4.38;;
13457;SDS011;6801;53.018;11.560;2022-12-07T08:05:21;6.05;;;4.57;;
13457;SDS011;6801;53.018;11.560;2022-12-07T08:07:49;9.55;;;4.57;;
13457;SDS011;6801;53.018;11.560;2022-12-07T08:10:16;6.55;;;3.88;;
13457;SDS011;6801;53.018;11.560;2022-12-07T08:12:43;6.03;;;3.55;;
13457;SDS011;6801;53.018;11.560;2022-12-07T08:15:30;7.43;;;4.00;;
13457;SDS011;6801;53.018;11.560;2022-12-07T08:17:57;5.93;;;3.78;;
13457;SDS011;6801;53.018;11.560;2022-12-07T08:20:25;6.63;;;3.58;;
13457;SDS011;6801;53.018;11.560;2022-12-07T08:22:52;6.57;;;3.30;;
13457;SDS011;6801;53.018;11.560;2022-12-07T08:25:19;5.15;;;3.17;;
13457;SDS011;6801;53.018;11.560;2022-12-07T08:27:47;9.95;;;3.70;;
13457;SDS011;6801;53.018;11.560;2022-12-07T08:30:14;6.75;;;3.55;;
13457;SDS011;6801;53.018;11.560;2022-12-07T08:32:43;7.78;;;3.33;;
13457;SDS011;6801;53.018;11.560;2022-12-07T08:35:11;7.25;;;3.45;;
13457;SDS011;6801;53.018;11.560;2022-12-07T08:37:39;5.45;;;3.00;;
13457;SDS011;6801;53.018;11.560;2022-12-07T08:40:07;6.35;;;3.58;;
13457;SDS011;6801;53.018;11.560;2022-12-07T08:42:35;4.45;;;2.65;;
13457;SDS011;6801;53.018;11.560;2022-12-07T08:45:05;5.10;;;2.70;;
13457;SDS011;6801;53.018;11.560;2022-12-07T08:47:34;6.50;;;3.17;;
13457;SDS011;6801;53.018;11.560;2022-12-07T08:50:06;11.13;;;2.40;;
13457;SDS011;6801;53.018;11.560;2022-12-07T08:52:36;9.65;;;2.90;;
13457;SDS011;6801;53.018;11.560;2022-12-07T08:55:04;5.43;;;2.35;;
13457;SDS011;6801;53.018;11.560;2022-12-07T08:57:32;7.70;;;3.25;;
13457;SDS011;6801;53.018;11.560;2022-12-07T09:00:01;5.38;;;2.78;;
13457;SDS011;6801;53.018;11.560;2022-12-07T09:02:30;6.97;;;2.40;;
13457;SDS011;6801;53.018;11.560;2022-12-07T09:04:57;5.80;;;2.33;;
13457;SDS011;6801;53.018;11.560;2022-12-07T09:07:25;4.13;;;2.13;;
13457;SDS011;6801;53.018;11.560;2022-12-07T09:09:53;5.20;;;2.00;;
13457;SDS011;6801;53.018;11.560;2022-12-07T09:12:21;5.53;;;1.85;;
13457;SDS011;6801;53.018;11.560;2022-12-07T09:14:48;5.63;;;2.15;;
13457;SDS011;6801;53.018;11.560;2022-12-07T09:17:15;5.80;;;2.00;;
13457;SDS011;6801;53.018;11.560;2022-12-07T09:19:42;4.28;;;1.70;;
13457;SDS011;6801;53.018;11.560;2022-12-07T09:22:09;4.95;;;1.45;;
13457;SDS011;6801;53.018;11.560;2022-12-07T09:24:37;3.72;;;1.67;;
13457;SDS011;6801;53.018;11.560;2022-12-07T09:27:04;3.55;;;1.70;;
13457;SDS011;6801;53.018;11.560;2022-12-07T09:29:31;3.65;;;1.77;;
13457;SDS011;6801;53.018;11.560;2022-12-07T09:31:58;2.55;;;1.67;;
13457;SDS011;6801;53.018;11.560;2022-12-07T09:34:25;3.15;;;1.65;;
13457;SDS011;6801;53.018;11.560;2022-12-07T09:36:52;4.55;;;1.50;;
13457;SDS011;6801;53.018;11.560;2022-12-07T09:39:19;4.63;;;1.83;;
13457;SDS011;6801;53.018;11.560;2022-12-07T09:41:48;2.53;;;1.52;;
13457;SDS011;6801;53.018;11.560;2022-12-07T09:44:17;4.97;;;1.67;;
13457;SDS011;6801;53.018;11.560;2022-12-07T09:46:48;6.45;;;1.85;;
13457;SDS011;6801;53.018;11.560;2022-12-07T09:49:16;3.90;;;1.65;;
13457;SDS011;6801;53.018;11.560;2022-12-07T09:51:45;6.83;;;2.23;;
13457;SDS011;6801;53.018;11.560;2022-12-07T09:54:14;2.65;;;1.77;;
13457;SDS011;6801;53.018;11.560;2022-12-07T09:56:42;5.18;;;1.95;;
13457;SDS011;6801;53.018;11.560;2022-12-07T09:59:15;5.07;;;2.08;;
13457;SDS011;6801;53.018;11.560;2022-12-07T10:01:44;3.97;;;1.67;;
13457;SDS011;6801;53.018;11.560;2022-12-07T10:04:13;4.75;;;2.28;;
13457;SDS011;6801;53.018;11.560;2022-12-07T10:06:43;3.05;;;1.70;;
13457;SDS011;6801;53.018;11.560;2022-12-07T10:09:11;5.53;;;2.10;;
13457;SDS011;6801;53.018;11.560;2022-12-07T10:11:58;4.20;;;1.60;;
13457;SDS011;6801;53.018;11.560;2022-12-07T10:14:31;5.78;;;1.80;;
13457;SDS011;6801;53.018;11.560;2022-12-07T10:17:00;4.00;;;1.88;;
13457;SDS011;6801;53.018;11.560;2022-12-07T10:19:28;4.00;;;2.00;;
13457;SDS011;6801;53.018;11.560;2022-12-07T10:22:02;6.30;;;2.22;;
13457;SDS011;6801;53.018;11.560;2022-12-07T10:24:32;3.80;;;1.52;;
13457;SDS011;6801;53.018;11.560;2022-12-07T10:26:59;3.42;;;1.50;;
13457;SDS011;6801;53.018;11.560;2022-12-07T10:29:28;4.90;;;1.50;;
13457;SDS011;6801;53.018;11.560;2022-12-07T10:32:00;5.25;;;1.35;;
13457;SDS011;6801;53.018;11.560;2022-12-07T10:34:29;5.68;;;1.80;;
13457;SDS011;6801;53.018;11.560;2022-12-07T10:39:53;4.10;;;1.08;;
13457;SDS011;6801;53.018;11.560;2022-12-07T10:42:22;4.72;;;1.70;;
13457;SDS011;6801;53.018;11.560;2022-12-07T10:47:36;4.07;;;1.23;;
13457;SDS011;6801;53.018;11.560;2022-12-07T10:50:15;7.63;;;1.33;;
13457;SDS011;6801;53.018;11.560;2022-12-07T10:52:57;5.65;;;2.35;;
13457;SDS011;6801;53.018;11.560;2022-12-07T10:55:52;4.55;;;1.05;;
13457;SDS011;6801;53.018;11.560;2022-12-07T10:58:31;4.72;;;1.20;;
13457;SDS011;6801;53.018;11.560;2022-12-07T11:01:16;3.78;;;1.08;;
13457;SDS011;6801;53.018;11.560;2022-12-07T11:04:03;5.78;;;1.60;;
13457;SDS011;6801;53.018;11.560;2022-12-07T11:06:45;2.55;;;0.90;;
13457;SDS011;6801;53.018;11.560;2022-12-07T11:09:22;6.05;;;1.15;;
13457;SDS011;6801;53.018;11.560;2022-12-07T11:12:11;2.90;;;0.93;;
13457;SDS011;6801;53.018;11.560;2022-12-07T11:14:47;4.82;;;1.15;;
13457;SDS011;6801;53.018;11.560;2022-12-07T11:17:22;8.32;;;1.90;;
13457;SDS011;6801;53.018;11.560;2022-12-07T11:20:00;5.68;;;1.10;;
13457;SDS011;6801;53.018;11.560;2022-12-07T11:22:40;3.95;;;1.45;;
13457;SDS011;6801;53.018;11.560;2022-12-07T11:25:17;3.35;;;1.00;;
13457;SDS011;6801;53.018;11.560;2022-12-07T11:27:55;2.63;;;1.15;;
13457;SDS011;6801;53.018;11.560;2022-12-07T11:30:39;4.85;;;1.08;;
13457;SDS011;6801;53.018;11.560;2022-12-07T11:33:14;8.13;;;1.60;;
13457;SDS011;6801;53.018;11.560;2022-12-07T11:35:50;6.25;;;0.80;;
13457;SDS011;6801;53.018;11.560;2022-12-07T11:38:32;4.32;;;1.02;;
13457;SDS011;6801;53.018;11.560;2022-12-07T11:41:08;7.05;;;1.48;;
13457;SDS011;6801;53.018;11.560;2022-12-07T11:43:50;3.20;;;0.90;;
13457;SDS011;6801;53.018;11.560;2022-12-07T11:46:19;6.95;;;1.33;;
13457;SDS011;6801;53.018;11.560;2022-12-07T11:48:54;4.45;;;1.30;;
13457;SDS011;6801;53.018;11.560;2022-12-07T11:51:28;9.15;;;1.65;;
13457;SDS011;6801;53.018;11.560;2022-12-07T11:54:01;6.55;;;1.00;;
13457;SDS011;6801;53.018;11.560;2022-12-07T11:56:31;5.05;;;0.98;;
13457;SDS011;6801;53.018;11.560;2022-12-07T11:59:04;6.47;;;0.98;;
13457;SDS011;6801;53.018;11.560;2022-12-07T12:01:44;7.53;;;1.90;;
13457;SDS011;6801;53.018;11.560;2022-12-07T12:04:25;2.88;;;0.80;;
13457;SDS011;6801;53.018;11.560;2022-12-07T12:06:57;3.97;;;1.10;;
13457;SDS011;6801;53.018;11.560;2022-12-07T12:09:26;6.95;;;1.35;;
13457;SDS011;6801;53.018;11.560;2022-12-07T12:14:58;6.15;;;1.55;;
13457;SDS011;6801;53.018;11.560;2022-12-07T12:17:38;5.38;;;1.33;;
13457;SDS011;6801;53.018;11.560;2022-12-07T12:20:20;7.32;;;1.75;;
13457;SDS011;6801;53.018;11.560;2022-12-07T12:22:53;4.82;;;1.30;;
13457;SDS011;6801;53.018;11.560;2022-12-07T12:25:27;4.10;;;0.80;;
13457;SDS011;6801;53.018;11.560;2022-12-07T12:27:57;7.53;;;1.70;;
13457;SDS011;6801;53.018;11.560;2022-12-07T12:30:30;4.50;;;0.77;;
13457;SDS011;6801;53.018;11.560;2022-12-07T12:33:01;7.47;;;1.38;;
13457;SDS011;6801;53.018;11.560;2022-12-07T12:35:40;5.35;;;1.55;;
13457;SDS011;6801;53.018;11.560;2022-12-07T12:38:22;3.75;;;0.75;;
13457;SDS011;6801;53.018;11.560;2022-12-07T12:40:53;5.03;;;1.17;;
13457;SDS011;6801;53.018;11.560;2022-12-07T12:55:24;6.75;;;1.00;;
13457;SDS011;6801;53.018;11.560;2022-12-07T12:58:26;3.83;;;0.75;;
13457;SDS011;6801;53.018;11.560;2022-12-07T13:04:14;6.55;;;1.42;;
13457;SDS011;6801;53.018;11.560;2022-12-07T13:07:03;7.82;;;1.02;;
13457;SDS011;6801;53.018;11.560;2022-12-07T13:09:31;5.28;;;0.95;;
13457;SDS011;6801;53.018;11.560;2022-12-07T13:12:03;4.22;;;0.95;;
13457;SDS011;6801;53.018;11.560;2022-12-07T13:20:47;3.35;;;0.50;;
13457;SDS011;6801;53.018;11.560;2022-12-07T13:23:31;4.40;;;0.63;;
13457;SDS011;6801;53.018;11.560;2022-12-07T13:29:07;2.40;;;0.50;;
13457;SDS011;6801;53.018;11.560;2022-12-07T13:31:38;4.22;;;0.93;;
13457;SDS011;6801;53.018;11.560;2022-12-07T13:36:57;4.32;;;0.93;;
13457;SDS011;6801;53.018;11.560;2022-12-07T13:39:25;2.00;;;0.95;;
13457;SDS011;6801;53.018;11.560;2022-12-07T13:41:53;3.35;;;0.50;;
13457;SDS011;6801;53.018;11.560;2022-12-07T13:44:24;2.70;;;0.60;;
13457;SDS011;6801;53.018;11.560;2022-12-07T13:46:54;1.70;;;0.45;;
13457;SDS011;6801;53.018;11.560;2022-12-07T13:49:27;4.10;;;0.73;;
13457;SDS011;6801;53.018;11.560;2022-12-07T13:52:06;3.78;;;0.60;;
13457;SDS011;6801;53.018;11.560;2022-12-07T13:54:43;2.72;;;0.30;;
13457;SDS011;6801;53.018;11.560;2022-12-07T13:57:11;9.95;;;1.42;;
13457;SDS011;6801;53.018;11.560;2022-12-07T13:59:40;2.53;;;0.43;;
13457;SDS011;6801;53.018;11.560;2022-12-07T14:02:16;5.75;;;1.65;;
13457;SDS011;6801;53.018;11.560;2022-12-07T14:04:45;6.20;;;0.50;;
13457;SDS011;6801;53.018;11.560;2022-12-07T14:07:20;2.90;;;0.70;;
13457;SDS011;6801;53.018;11.560;2022-12-07T14:09:54;3.47;;;0.93;;
13457;SDS011;6801;53.018;11.560;2022-12-07T14:12:22;4.72;;;0.60;;
13457;SDS011;6801;53.018;11.560;2022-12-07T14:14:51;3.28;;;0.70;;
13457;SDS011;6801;53.018;11.560;2022-12-07T14:17:21;4.22;;;0.68;;
13457;SDS011;6801;53.018;11.560;2022-12-07T14:19:50;4.28;;;0.70;;
13457;SDS011;6801;53.018;11.560;2022-12-07T14:22:22;3.75;;;0.43;;
13457;SDS011;6801;53.018;11.560;2022-12-07T14:25:00;4.03;;;0.90;;
13457;SDS011;6801;53.018;11.560;2022-12-07T14:27:46;3.53;;;0.73;;
13457;SDS011;6801;53.018;11.560;2022-12-07T14:30:17;4.22;;;0.70;;
13457;SDS011;6801;53.018;11.560;2022-12-07T14:32:46;4.90;;;1.57;;
13457;SDS011;6801;53.018;11.560;2022-12-07T14:35:17;4.88;;;0.90;;
13457;SDS011;6801;53.018;11.560;2022-12-07T14:37:46;6.57;;;0.98;;
13457;SDS011;6801;53.018;11.560;2022-12-07T14:40:16;12.98;;;1.23;;
13457;SDS011;6801;53.018;11.560;2022-12-07T14:42:44;4.67;;;0.93;;
13457;SDS011;6801;53.018;11.560;2022-12-07T14:45:13;3.65;;;0.60;;
13457;SDS011;6801;53.018;11.560;2022-12-07T14:47:44;5.40;;;0.50;;
13457;SDS011;6801;53.018;11.560;2022-12-07T14:50:12;5.05;;;0.68;;
13457;SDS011;6801;53.018;11.560;2022-12-07T14:52:40;5.70;;;0.88;;
13457;SDS011;6801;53.018;11.560;2022-12-07T14:55:12;4.53;;;0.70;;
13457;SDS011;6801;53.018;11.560;2022-12-07T14:57:42;4.22;;;0.90;;
13457;SDS011;6801;53.018;11.560;2022-12-07T15:00:13;2.67;;;0.85;;
13457;SDS011;6801;53.018;11.560;2022-12-07T15:02:43;4.97;;;0.75;;
13457;SDS011;6801;53.018;11.560;2022-12-07T15:05:11;5.30;;;0.80;;
13457;SDS011;6801;53.018;11.560;2022-12-07T15:07:38;2.97;;;0.88;;
13457;SDS011;6801;53.018;11.560;2022-12-07T15:10:08;3.30;;;0.68;;
13457;SDS011;6801;53.018;11.560;2022-12-07T15:12:42;9.55;;;0.85;;
13457;SDS011;6801;53.018;11.560;2022-12-07T15:15:09;3.47;;;0.95;;
13457;SDS011;6801;53.018;11.560;2022-12-07T15:17:36;5.72;;;0.95;;
13457;SDS011;6801;53.018;11.560;2022-12-07T15:20:05;4.30;;;0.70;;
13457;SDS011;6801;53.018;11.560;2022-12-07T15:22:36;4.57;;;1.17;;
13457;SDS011;6801;53.018;11.560;2022-12-07T15:25:04;3.47;;;0.88;;
13457;SDS011;6801;53.018;11.560;2022-12-07T15:27:31;6.25;;;0.65;;
13457;SDS011;6801;53.018;11.560;2022-12-07T15:29:59;5.13;;;0.60;;
13457;SDS011;6801;53.018;11.560;2022-12-07T15:32:26;5.10;;;0.90;;
13457;SDS011;6801;53.018;11.560;2022-12-07T15:34:53;6.75;;;0.77;;
13457;SDS011;6801;53.018;11.560;2022-12-07T15:37:21;5.47;;;0.98;;
13457;SDS011;6801;53.018;11.560;2022-12-07T15:39:48;3.30;;;0.95;;
13457;SDS011;6801;53.018;11.560;2022-12-07T15:42:15;1.38;;;0.60;;
13457;SDS011;6801;53.018;11.560;2022-12-07T15:44:42;4.75;;;0.82;;
13457;SDS011;6801;53.018;11.560;2022-12-07T15:47:27;5.32;;;0.60;;